Time;durP1;ratioP1;P1;durP2;ratioP2;P2;SDS_P1;SDS_P2;PMS_P1;PMS_P2;Temp;Humidity;BMP_temperature;BMP_pressure;BME280_temperature;BME280_humidity;BME280_pressure;Samples;Min_cycle;Max_cycle;Signal;HPM_P1;HPM_P2
2021/12/26 00:01:11;;;;;;;4.35;4.05;;;;;;;-7.70;73.30;96122.88;1778004;78;20948;-84
2021/12/26 00:03:37;;;;;;;4.12;3.92;;;;;;;-7.71;73.28;96126.75;1754484;78;21357;-84
2021/12/26 00:06:07;;;;;;;4.40;4.00;;;;;;;-7.72;73.38;96129.72;1758354;80;20936;-84
2021/12/26 00:08:36;;;;;;;4.55;4.25;;;;;;;-7.75;73.47;96126.53;1758089;79;21048;-84
2021/12/26 00:11:03;;;;;;;4.42;4.22;;;;;;;-7.78;73.42;96127.52;1773810;78;21449;-84
2021/12/26 00:13:30;;;;;;;4.15;3.85;;;;;;;-7.79;73.34;96128.85;1763350;78;21027;-84
2021/12/26 00:15:58;;;;;;;8.55;6.33;;;;;;;-7.82;73.29;96124.75;1767595;78;21534;-84
2021/12/26 00:18:24;;;;;;;4.75;4.40;;;;;;;-7.82;73.31;96121.41;1768288;78;20971;-84
2021/12/26 00:20:50;;;;;;;4.58;4.15;;;;;;;-7.81;73.16;96119.25;1773443;78;20979;-84
2021/12/26 00:23:16;;;;;;;4.60;4.20;;;;;;;-7.81;73.08;96125.56;1786929;78;20979;-85
2021/12/26 00:25:44;;;;;;;4.60;4.25;;;;;;;-7.82;73.01;96129.80;1769479;78;21018;-85
2021/12/26 00:28:11;;;;;;;4.50;4.20;;;;;;;-7.84;72.98;96132.03;1764956;78;21414;-82
2021/12/26 00:30:36;;;;;;;4.05;3.80;;;;;;;-7.87;73.11;96137.59;1780009;78;21050;-82
2021/12/26 00:33:02;;;;;;;3.83;3.62;;;;;;;-7.90;73.31;96140.27;1775286;79;21015;-82
2021/12/26 00:35:28;;;;;;;4.03;3.72;;;;;;;-7.91;73.30;96138.64;1770339;78;21392;-82
2021/12/26 00:37:54;;;;;;;4.28;3.98;;;;;;;-7.94;73.16;96132.50;1773569;78;21027;-83
2021/12/26 00:40:22;;;;;;;3.90;3.70;;;;;;;-7.95;73.24;96135.09;1767669;80;20967;-82
2021/12/26 00:42:49;;;;;;;3.80;3.60;;;;;;;-7.98;73.25;96132.25;1778070;78;21431;-82
2021/12/26 00:45:15;;;;;;;4.20;3.80;;;;;;;-8.00;73.27;96131.97;1763614;80;20976;-82
2021/12/26 00:47:41;;;;;;;3.92;3.72;;;;;;;-8.03;73.23;96122.84;1786453;78;21335;-82
2021/12/26 00:50:10;;;;;;;4.33;4.03;;;;;;;-8.03;73.21;96124.56;1767864;78;21009;-82
2021/12/26 00:52:36;;;;;;;4.10;3.80;;;;;;;-8.04;73.17;96127.52;1753878;78;21020;-82
2021/12/26 00:55:04;;;;;;;4.20;3.90;;;;;;;-8.03;73.18;96121.59;1764792;78;20993;-82
2021/12/26 00:57:30;;;;;;;4.10;3.72;;;;;;;-8.03;73.09;96124.56;1762898;79;21043;-82
2021/12/26 00:59:56;;;;;;;5.10;4.50;;;;;;;-8.04;73.18;96125.45;1764329;78;20960;-82
2021/12/26 01:02:22;;;;;;;5.60;4.65;;;;;;;-8.04;73.27;96122.93;1767391;78;20988;-82
2021/12/26 01:04:48;;;;;;;4.92;4.53;;;;;;;-8.03;73.34;96114.47;1758550;78;21409;-82
2021/12/26 01:07:26;;;;;;;5.87;5.37;;;;;;;-8.07;73.15;96123.90;1757070;79;21086;-82
2021/12/26 01:09:45;;;;;;;4.67;4.25;;;;;;;-8.08;73.17;96124.79;1758676;79;20944;-82
2021/12/26 01:12:14;;;;;;;4.40;3.98;;;;;;;-8.09;73.37;96119.38;1767572;79;21413;-83
2021/12/26 01:14:45;;;;;;;4.90;4.50;;;;;;;-8.11;73.31;96118.64;1728800;80;21357;-82
2021/12/26 01:17:13;;;;;;;5.05;4.65;;;;;;;-8.09;73.25;96118.12;1717185;81;21166;-82
2021/12/26 01:19:43;;;;;;;5.92;5.00;;;;;;;-8.12;73.20;96108.19;1703547;82;21066;-83
2021/12/26 01:22:03;;;;;;;5.22;4.70;;;;;;;-8.14;73.17;96106.16;1724464;81;21043;-82
2021/12/26 01:24:29;;;;;;;4.90;4.50;;;;;;;-8.16;73.15;96103.72;1703608;82;21407;-82
2021/12/26 01:26:54;;;;;;;5.83;5.33;;;;;;;-8.19;73.27;96105.13;1758318;79;20971;-83
2021/12/26 01:29:20;;;;;;;6.90;5.70;;;;;;;-8.19;73.29;96108.10;1768536;79;21444;-82
2021/12/26 01:31:46;;;;;;;6.60;5.30;;;;;;;-8.20;73.33;96105.21;1747411;80;20982;-82
2021/12/26 01:34:12;;;;;;;5.97;5.47;;;;;;;-8.23;73.33;96105.37;1762849;79;21021;-82
2021/12/26 01:36:37;;;;;;;7.30;5.87;;;;;;;-8.26;73.26;96104.27;1757519;78;21079;-82
2021/12/26 01:39:07;;;;;;;6.80;6.22;;;;;;;-8.28;73.33;96103.52;1770430;79;21026;-82
2021/12/26 01:41:31;;;;;;;7.28;6.20;;;;;;;-8.31;73.30;96093.12;1766981;78;21061;-82
2021/12/26 01:44:03;;;;;;;6.45;5.67;;;;;;;-8.32;73.33;96095.72;1771376;78;21077;-82
2021/12/26 01:46:26;;;;;;;6.12;5.53;;;;;;;-8.33;73.24;96099.13;1769453;79;21047;-82
2021/12/26 01:49:12;;;;;;;6.12;5.47;;;;;;;-8.35;73.12;96092.13;1771906;78;21445;-82
2021/12/26 01:51:38;;;;;;;6.05;5.45;;;;;;;-8.37;73.17;96087.61;1767110;78;21083;-82
2021/12/26 01:54:08;;;;;;;6.60;5.80;;;;;;;-8.39;73.06;96086.42;1764071;79;21020;-82
2021/12/26 01:56:32;;;;;;;6.72;6.12;;;;;;;-8.40;73.06;96082.72;1763716;78;21015;-83
2021/12/26 01:58:59;;;;;;;5.80;5.28;;;;;;;-8.40;73.25;96083.98;1764599;78;20975;-82
2021/12/26 02:01:25;;;;;;;6.25;5.20;;;;;;;-8.44;73.41;96083.77;1726487;78;21079;-82
2021/12/26 02:03:50;;;;;;;6.67;6.03;;;;;;;-8.45;73.54;96087.17;1749040;79;21298;-82
2021/12/26 02:06:16;;;;;;;6.90;6.33;;;;;;;-8.46;73.63;96082.58;1779270;78;21007;-82
2021/12/26 02:08:42;;;;;;;6.22;5.40;;;;;;;-8.44;73.62;96086.28;1743421;79;21460;-82
2021/12/26 02:11:08;;;;;;;5.40;5.03;;;;;;;-8.43;73.66;96081.61;1764356;78;21609;-82
2021/12/26 02:13:37;;;;;;;7.03;4.97;;;;;;;-8.41;73.68;96081.91;1773063;78;21004;-82
2021/12/26 02:16:02;;;;;;;5.20;4.80;;;;;;;-8.41;73.68;96084.87;1749655;79;21074;-82
2021/12/26 02:18:28;;;;;;;5.08;4.78;;;;;;;-8.44;73.46;96077.47;1773866;78;21047;-82
2021/12/26 02:21:18;;;;;;;5.20;4.70;;;;;;;-8.45;73.57;96080.43;1767480;78;21060;-82
2021/12/26 02:23:43;;;;;;;5.33;4.78;;;;;;;-8.42;73.68;96079.46;1771911;78;20967;-83
2021/12/26 02:28:46;;;;;;;5.22;4.70;;;;;;;-8.35;73.70;96085.38;1752721;78;21086;-83
2021/12/26 02:31:12;;;;;;;5.22;4.78;;;;;;;-8.32;73.64;96080.59;1776589;78;21023;-82
2021/12/26 02:33:38;;;;;;;5.20;4.80;;;;;;;-8.32;73.47;96085.64;1771782;79;20934;-82
2021/12/26 02:36:04;;;;;;;4.95;4.65;;;;;;;-8.32;73.41;96080.59;1770187;78;21028;-82
2021/12/26 02:38:31;;;;;;;5.45;4.95;;;;;;;-8.35;73.42;96083.30;1763765;79;21014;-81
2021/12/26 02:40:57;;;;;;;5.37;5.00;;;;;;;-8.35;73.40;96087.90;1757358;79;21046;-82
2021/12/26 02:43:24;;;;;;;6.65;4.87;;;;;;;-8.34;73.44;96085.74;1764032;78;21089;-81
2021/12/26 02:45:51;;;;;;;5.85;5.30;;;;;;;-8.33;73.30;96087.79;1762487;78;21043;-82
2021/12/26 02:48:16;;;;;;;5.58;5.08;;;;;;;-8.34;73.33;96089.53;1769204;78;20968;-82
2021/12/26 02:50:44;;;;;;;5.10;4.70;;;;;;;-8.35;73.24;96089.16;1766154;78;21038;-82
2021/12/26 02:53:13;;;;;;;5.80;5.40;;;;;;;-8.35;73.27;96092.94;1760645;78;21412;-82
2021/12/26 02:55:38;;;;;;;6.67;6.08;;;;;;;-8.36;73.09;96098.05;1757043;78;21426;-82
2021/12/26 02:58:08;;;;;;;9.45;6.50;;;;;;;-8.37;73.11;96098.50;1757803;78;21086;-82
2021/12/26 03:00:38;;;;;;;9.03;6.35;;;;;;;-8.37;72.73;96098.50;1766238;79;21063;-82
2021/12/26 03:03:05;;;;;;;11.40;7.50;;;;;;;-8.40;72.63;96094.06;1764941;78;21525;-82
2021/12/26 03:05:35;;;;;;;10.13;7.42;;;;;;;-8.41;72.52;96092.43;1759587;78;20996;-82
2021/12/26 03:08:01;;;;;;;9.13;6.67;;;;;;;-8.37;72.48;96093.91;1751920;78;21453;-82
2021/12/26 03:10:27;;;;;;;9.63;7.28;;;;;;;-8.34;72.45;96090.78;1752088;78;21046;-81
2021/12/26 03:12:58;;;;;;;9.50;7.08;;;;;;;-8.35;72.27;96095.91;1757867;78;21054;-82
2021/12/26 03:15:25;;;;;;;8.00;6.12;;;;;;;-8.36;72.19;96095.53;1770641;78;21022;-82
2021/12/26 03:17:53;;;;;;;7.00;6.28;;;;;;;-8.35;72.13;96094.64;1757918;79;21517;-82
2021/12/26 03:20:23;;;;;;;6.37;5.78;;;;;;;-8.38;72.22;96091.83;1774687;78;21020;-82
2021/12/26 03:22:49;;;;;;;6.58;5.60;;;;;;;-8.38;72.19;96097.31;1771421;78;21002;-82
2021/12/26 03:25:22;;;;;;;6.47;5.80;;;;;;;-8.43;72.20;96100.51;1764155;78;20960;-82
2021/12/26 03:27:48;;;;;;;5.20;4.80;;;;;;;-8.48;72.25;96101.97;1769729;79;20964;-82
2021/12/26 03:30:18;;;;;;;4.45;4.20;;;;;;;-8.47;72.44;96106.93;1759267;78;21122;-82
2021/12/26 03:32:44;;;;;;;4.40;4.10;;;;;;;-8.44;72.49;96098.87;1764816;79;21023;-82
2021/12/26 03:35:10;;;;;;;5.50;4.58;;;;;;;-8.43;72.30;96100.06;1770128;78;20951;-82
2021/12/26 03:37:36;;;;;;;4.80;4.40;;;;;;;-8.44;72.47;96103.92;1752136;79;21448;-81
2021/12/26 03:40:04;;;;;;;4.33;4.10;;;;;;;-8.39;72.45;96099.47;1767798;78;20992;-82
2021/12/26 03:42:29;;;;;;;4.37;4.08;;;;;;;-8.39;72.38;96108.28;1754784;80;21051;-82
2021/12/26 03:44:55;;;;;;;4.60;4.30;;;;;;;-8.40;72.38;96108.73;1766913;78;21471;-81
2021/12/26 03:47:21;;;;;;;4.80;4.40;;;;;;;-8.39;72.37;96109.09;1771569;78;21022;-82
2021/12/26 03:49:49;;;;;;;4.37;4.08;;;;;;;-8.40;72.27;96111.70;1759832;79;21074;-82
2021/12/26 03:52:14;;;;;;;5.08;4.75;;;;;;;-8.43;72.29;96114.37;1758198;80;21072;-81
2021/12/26 03:54:40;;;;;;;4.67;4.37;;;;;;;-8.42;72.39;96109.70;1768653;78;21066;-81
2021/12/26 03:57:07;;;;;;;4.65;4.35;;;;;;;-8.45;72.29;96114.45;1762275;79;21001;-81
2021/12/26 03:59:33;;;;;;;4.55;4.22;;;;;;;-8.45;72.45;96122.45;1756572;78;20991;-82
2021/12/26 04:01:58;;;;;;;4.85;4.53;;;;;;;-8.50;72.33;96115.09;1763185;78;21087;-82
2021/12/26 04:04:24;;;;;;;4.75;4.45;;;;;;;-8.49;72.27;96116.27;1760614;79;21015;-81
2021/12/26 04:06:50;;;;;;;4.95;4.65;;;;;;;-8.52;72.19;96116.42;1766546;80;21679;-82
2021/12/26 04:09:16;;;;;;;5.17;4.78;;;;;;;-8.56;72.30;96118.72;1777580;78;21046;-82
2021/12/26 04:11:44;;;;;;;4.37;4.00;;;;;;;-8.55;72.36;96119.53;1758772;78;21002;-81
2021/12/26 04:14:09;;;;;;;5.00;4.60;;;;;;;-8.56;72.33;96122.50;1768990;78;21004;-81
2021/12/26 04:16:35;;;;;;;7.72;5.12;;;;;;;-8.57;72.29;96124.65;1785432;78;20981;-82
2021/12/26 04:19:01;;;;;;;5.92;5.37;;;;;;;-8.59;72.26;96127.69;1765535;78;20991;-83
2021/12/26 04:21:27;;;;;;;5.33;4.83;;;;;;;-8.60;72.20;96129.84;1765216;78;20991;-83
2021/12/26 04:23:53;;;;;;;8.23;6.37;;;;;;;-8.58;72.21;96134.80;1770746;78;21050;-83
2021/12/26 04:26:19;;;;;;;6.45;5.85;;;;;;;-8.57;72.15;96135.98;1757274;78;22008;-83
2021/12/26 04:28:45;;;;;;;5.45;5.05;;;;;;;-8.53;72.16;96139.17;1775038;78;21006;-83
2021/12/26 04:31:10;;;;;;;5.53;4.95;;;;;;;-8.51;72.13;96144.95;1760210;78;21026;-82
2021/12/26 04:33:36;;;;;;;4.65;4.35;;;;;;;-8.49;71.98;96145.24;1761877;78;21376;-83
2021/12/26 04:36:02;;;;;;;4.10;3.90;;;;;;;-8.52;71.96;96139.09;1772269;78;21022;-83
2021/12/26 04:38:28;;;;;;;4.08;3.87;;;;;;;-8.49;71.94;96148.20;1761635;78;21007;-83
2021/12/26 04:40:53;;;;;;;4.58;4.20;;;;;;;-8.53;71.79;96153.02;1764915;78;21011;-84
2021/12/26 04:43:24;;;;;;;4.40;4.20;;;;;;;-8.52;71.95;96154.66;1761026;79;21021;-83
2021/12/26 04:45:50;;;;;;;4.40;4.10;;;;;;;-8.54;72.00;96157.25;1715251;80;21051;-82
2021/12/26 04:48:15;;;;;;;5.08;4.50;;;;;;;-8.56;71.88;96159.03;1690270;82;21559;-83
2021/12/26 04:50:41;;;;;;;4.45;4.15;;;;;;;-8.56;71.81;96162.80;1708226;81;21072;-83
2021/12/26 04:53:07;;;;;;;4.50;4.20;;;;;;;-8.57;71.88;96159.91;1707500;82;21060;-82
2021/12/26 04:55:33;;;;;;;4.50;4.30;;;;;;;-8.59;71.69;96160.44;1699122;81;21102;-83
2021/12/26 04:58:00;;;;;;;4.60;4.30;;;;;;;-8.59;71.78;96163.40;1714527;81;20955;-83
2021/12/26 05:00:28;;;;;;;4.28;4.00;;;;;;;-8.63;71.63;96161.88;1709159;82;21083;-83
2021/12/26 05:02:56;;;;;;;4.35;4.05;;;;;;;-8.68;71.67;96157.06;1709117;81;21469;-83
2021/12/26 05:05:22;;;;;;;4.47;4.20;;;;;;;-8.66;71.75;96160.77;1734971;80;21055;-83
2021/12/26 05:07:48;;;;;;;4.40;4.20;;;;;;;-8.69;71.48;96156.70;1709315;81;21021;-83
2021/12/26 05:10:16;;;;;;;5.28;4.95;;;;;;;-8.72;71.59;96155.59;1703555;82;22234;-83
2021/12/26 05:12:43;;;;;;;5.40;5.08;;;;;;;-8.73;71.55;96160.69;1760193;78;20991;-83
2021/12/26 05:15:10;;;;;;;4.30;4.10;;;;;;;-8.76;71.76;96150.32;1766687;78;21002;-83
2021/12/26 05:17:36;;;;;;;4.15;3.95;;;;;;;-8.77;71.85;96155.43;1756049;78;21008;-83
2021/12/26 05:20:02;;;;;;;4.30;4.10;;;;;;;-8.78;72.07;96155.88;1741681;79;21476;-83
2021/12/26 05:22:28;;;;;;;4.33;4.12;;;;;;;-8.80;72.02;96158.44;1755147;79;20976;-83
2021/12/26 05:24:54;;;;;;;4.03;3.83;;;;;;;-8.84;72.05;96156.13;1735401;80;20999;-83
2021/12/26 05:27:20;;;;;;;4.00;3.80;;;;;;;-8.89;72.10;96151.31;1766882;78;21046;-82
2021/12/26 05:29:46;;;;;;;4.22;3.90;;;;;;;-8.90;72.08;96150.95;1755728;78;21125;-83
2021/12/26 05:32:11;;;;;;;4.00;3.80;;;;;;;-8.87;72.23;96157.54;1761403;78;21630;-83
2021/12/26 05:34:37;;;;;;;4.10;3.92;;;;;;;-8.84;72.25;96154.88;1774887;79;21027;-83
2021/12/26 05:37:04;;;;;;;4.70;4.40;;;;;;;-8.82;72.27;96155.62;1771416;78;21058;-83
2021/12/26 05:39:29;;;;;;;4.30;4.08;;;;;;;-8.83;72.17;96156.06;1757083;80;20985;-83
2021/12/26 05:41:55;;;;;;;4.20;4.00;;;;;;;-8.84;72.11;96151.09;1761959;78;21017;-83
2021/12/26 05:44:21;;;;;;;4.30;4.10;;;;;;;-8.85;72.00;96151.98;1767522;78;20971;-83
2021/12/26 05:46:48;;;;;;;4.50;4.30;;;;;;;-8.88;72.06;96150.88;1762128;78;20987;-83
2021/12/26 05:49:14;;;;;;;4.10;3.90;;;;;;;-8.90;72.08;96148.88;1750503;78;21015;-83
2021/12/26 05:51:40;;;;;;;4.58;4.28;;;;;;;-8.90;72.18;96151.39;1767765;78;20952;-83
2021/12/26 05:54:06;;;;;;;4.28;4.08;;;;;;;-8.92;71.94;96151.46;1765407;78;20976;-83
2021/12/26 05:56:31;;;;;;;4.25;4.05;;;;;;;-8.95;72.06;96157.90;1724951;81;21056;-83
2021/12/26 05:58:57;;;;;;;4.40;4.10;;;;;;;-9.00;72.05;96161.05;1724952;80;21004;-83
2021/12/26 06:01:23;;;;;;;4.20;4.00;;;;;;;-9.04;72.13;96158.30;1728488;81;21686;-82
2021/12/26 06:03:49;;;;;;;4.67;4.28;;;;;;;-9.06;72.10;96155.03;1734443;80;20927;-83
2021/12/26 06:06:14;;;;;;;4.35;4.12;;;;;;;-9.11;72.15;96150.22;1729983;81;22250;-83
2021/12/26 06:08:41;;;;;;;4.60;4.30;;;;;;;-9.12;72.41;96148.55;1717883;81;21022;-83
2021/12/26 06:11:06;;;;;;;4.08;3.92;;;;;;;-9.12;72.48;96152.33;1724435;81;21464;-82
2021/12/26 06:13:33;;;;;;;4.60;4.20;;;;;;;-9.08;72.63;96151.77;1730505;80;21119;-83
2021/12/26 06:16:00;;;;;;;4.12;3.87;;;;;;;-9.06;72.60;96155.03;1712676;82;21082;-83
2021/12/26 06:18:25;;;;;;;4.55;4.20;;;;;;;-9.06;72.60;96156.73;1725839;81;21419;-83
2021/12/26 06:20:51;;;;;;;5.35;4.55;;;;;;;-9.07;72.62;96158.44;1722700;81;21079;-83
2021/12/26 06:23:18;;;;;;;5.65;5.15;;;;;;;-9.09;72.25;96157.69;1737227;81;21113;-83
2021/12/26 06:25:44;;;;;;;6.20;5.70;;;;;;;-9.10;72.16;96154.36;1721703;81;21344;-83
2021/12/26 06:28:10;;;;;;;4.95;4.60;;;;;;;-9.11;72.18;96157.77;1765442;80;21001;-83
2021/12/26 06:30:35;;;;;;;6.12;5.33;;;;;;;-9.10;72.14;96156.88;1757525;78;21061;-83
2021/12/26 06:33:01;;;;;;;6.45;5.85;;;;;;;-9.11;72.14;96157.77;1744424;80;21028;-83
2021/12/26 06:35:27;;;;;;;6.72;6.12;;;;;;;-9.09;72.09;96155.17;1763989;78;20977;-83
2021/12/26 06:37:53;;;;;;;6.60;5.97;;;;;;;-9.12;72.07;96156.10;1772079;79;21047;-84
2021/12/26 06:40:19;;;;;;;5.70;5.22;;;;;;;-9.07;72.07;96156.36;1770748;80;20989;-83
2021/12/26 06:42:46;;;;;;;4.15;3.95;;;;;;;-9.03;72.12;96160.37;1726698;81;21006;-82
2021/12/26 06:45:15;;;;;;;4.40;4.20;;;;;;;-9.00;72.09;96161.05;1683894;83;21055;-83
2021/12/26 06:47:45;;;;;;;4.37;4.12;;;;;;;-9.00;71.99;96171.11;1691892;82;21055;-82
2021/12/26 06:50:10;;;;;;;5.25;5.05;;;;;;;-9.03;71.91;96176.29;1687278;82;21807;-83
2021/12/26 06:52:36;;;;;;;4.62;4.33;;;;;;;-9.05;72.02;96179.32;1691911;83;21010;-82
2021/12/26 06:55:02;;;;;;;4.45;4.25;;;;;;;-9.04;71.99;96186.43;1720777;81;21071;-83
2021/12/26 06:57:28;;;;;;;4.87;4.58;;;;;;;-9.03;72.01;96179.25;1714205;80;21379;-83
2021/12/26 06:59:54;;;;;;;4.10;3.90;;;;;;;-9.01;72.06;96186.28;1718646;81;21070;-82
2021/12/26 07:02:20;;;;;;;4.30;4.10;;;;;;;-9.01;72.03;96182.52;1723134;80;21002;-83
2021/12/26 07:04:46;;;;;;;4.50;4.12;;;;;;;-9.01;72.10;96187.55;1707334;81;20973;-83
2021/12/26 07:07:13;;;;;;;4.33;4.12;;;;;;;-9.00;72.20;96188.73;1721692;81;21059;-83
2021/12/26 07:09:42;;;;;;;4.95;4.45;;;;;;;-8.94;72.36;96188.48;1729153;81;21054;-83
2021/12/26 07:12:10;;;;;;;4.10;3.90;;;;;;;-8.89;72.35;96190.34;1734622;81;21016;-83
2021/12/26 07:14:35;;;;;;;4.30;4.10;;;;;;;-8.87;72.34;96192.34;1732461;81;21118;-83
2021/12/26 07:17:01;;;;;;;4.53;4.22;;;;;;;-8.82;72.27;96192.13;1739627;81;21044;-83
2021/12/26 07:19:27;;;;;;;4.12;3.92;;;;;;;-8.84;72.11;96202.28;1737267;80;21668;-83
2021/12/26 07:21:53;;;;;;;4.53;4.27;;;;;;;-8.81;72.27;96200.06;1727089;81;21161;-83
2021/12/26 07:24:19;;;;;;;4.20;4.00;;;;;;;-8.79;72.38;96202.91;1728752;81;21112;-82
2021/12/26 07:26:45;;;;;;;4.33;4.03;;;;;;;-8.72;72.42;96202.17;1745951;80;21039;-82
2021/12/26 07:29:10;;;;;;;4.37;4.08;;;;;;;-8.64;72.45;96211.45;1737448;81;21065;-82
2021/12/26 07:31:36;;;;;;;4.03;3.83;;;;;;;-8.58;72.43;96206.15;1718876;81;21065;-82
2021/12/26 07:34:02;;;;;;;4.25;4.05;;;;;;;-8.52;72.29;96208.83;1747974;81;21087;-81
2021/12/26 07:36:28;;;;;;;4.33;4.03;;;;;;;-8.52;72.21;96218.45;1741444;81;21874;-81
2021/12/26 07:38:54;;;;;;;4.28;3.98;;;;;;;-8.51;72.26;96208.75;1717599;81;21027;-82
2021/12/26 07:41:20;;;;;;;4.40;4.10;;;;;;;-8.49;72.25;96212.45;1740870;80;21352;-81
2021/12/26 07:43:45;;;;;;;4.17;3.98;;;;;;;-8.49;72.14;96213.72;1735331;80;21070;-82
2021/12/26 07:46:11;;;;;;;4.40;4.00;;;;;;;-8.50;72.10;96220.45;1715332;82;21601;-82
2021/12/26 07:48:37;;;;;;;3.85;3.75;;;;;;;-8.49;72.21;96220.83;1716092;82;21087;-81
2021/12/26 07:51:05;;;;;;;4.00;3.80;;;;;;;-8.46;72.21;96219.90;1740115;80;21127;-81
2021/12/26 07:53:31;;;;;;;4.25;3.95;;;;;;;-8.45;72.18;96221.53;1724586;81;21502;-82
2021/12/26 07:55:56;;;;;;;4.45;4.15;;;;;;;-8.43;72.20;96222.27;1723712;80;21011;-81
2021/12/26 07:58:22;;;;;;;4.40;4.10;;;;;;;-8.43;72.24;96227.75;1720203;81;21005;-81
2021/12/26 08:00:50;;;;;;;4.30;4.00;;;;;;;-8.40;72.25;96231.39;1720930;82;20984;-81
2021/12/26 08:03:16;;;;;;;4.35;4.05;;;;;;;-8.39;72.31;96230.50;1716720;82;21111;-83
2021/12/26 08:05:42;;;;;;;4.10;3.90;;;;;;;-8.32;72.45;96232.62;1730887;80;21109;-81
2021/12/26 08:08:08;;;;;;;4.30;4.10;;;;;;;-8.31;72.38;96232.18;1742020;81;21059;-82
2021/12/26 08:10:33;;;;;;;4.20;3.80;;;;;;;-8.26;72.41;96232.80;1707320;81;21422;-80
2021/12/26 08:12:59;;;;;;;3.95;3.70;;;;;;;-8.23;72.31;96236.44;1727097;81;21565;-80
2021/12/26 08:15:25;;;;;;;3.98;3.77;;;;;;;-8.17;72.52;96233.17;1724429;82;20980;-81
2021/12/26 08:17:51;;;;;;;3.90;3.70;;;;;;;-8.10;72.51;96232.46;1705799;81;21044;-81
2021/12/26 08:20:16;;;;;;;3.80;3.60;;;;;;;-8.03;72.33;96237.58;1712384;82;21029;-81
2021/12/26 08:22:42;;;;;;;4.10;3.90;;;;;;;-7.96;72.39;96234.34;1724885;81;21022;-81
2021/12/26 08:25:09;;;;;;;3.90;3.80;;;;;;;-7.93;72.26;96234.19;1726383;80;20984;-81
2021/12/26 08:27:35;;;;;;;4.20;4.00;;;;;;;-7.91;72.08;96233.22;1720031;82;21075;-81
2021/12/26 08:30:01;;;;;;;4.28;4.00;;;;;;;-7.87;72.19;96233.88;1707938;82;21405;-81
2021/12/26 08:32:29;;;;;;;4.85;4.45;;;;;;;-7.84;72.01;96236.25;1719818;81;21095;-81
2021/12/26 08:34:54;;;;;;;4.75;4.45;;;;;;;-7.82;71.97;96234.47;1766136;79;21179;-81
2021/12/26 08:37:20;;;;;;;4.35;4.15;;;;;;;-7.76;71.88;96234.64;1766291;78;21311;-81
2021/12/26 08:39:47;;;;;;;4.35;4.05;;;;;;;-7.71;71.78;96236.48;1770290;78;21039;-82
2021/12/26 08:42:13;;;;;;;5.05;4.60;;;;;;;-7.64;71.83;96228.56;1747209;80;21155;-82
2021/12/26 08:44:39;;;;;;;4.80;4.40;;;;;;;-7.61;71.59;96233.89;1776479;78;21816;-82
2021/12/26 08:47:07;;;;;;;4.78;4.35;;;;;;;-7.60;71.48;96241.84;1770016;78;21031;-82
2021/12/26 08:49:35;;;;;;;4.30;3.92;;;;;;;-7.62;71.42;96237.31;1762611;78;21023;-82
2021/12/26 08:52:01;;;;;;;4.03;3.72;;;;;;;-7.59;71.28;96237.16;1754970;80;20980;-81
2021/12/26 08:54:28;;;;;;;4.20;3.90;;;;;;;-7.56;71.31;96234.03;1752927;80;20977;-81
2021/12/26 08:56:54;;;;;;;4.25;3.87;;;;;;;-7.49;71.12;96235.80;1772484;78;21043;-81
2021/12/26 08:59:24;;;;;;;3.75;3.55;;;;;;;-7.45;71.08;96230.98;1765698;78;20972;-81
2021/12/26 09:01:49;;;;;;;4.10;3.80;;;;;;;-7.44;71.00;96234.33;1770455;78;20960;-81
2021/12/26 09:04:16;;;;;;;3.75;3.55;;;;;;;-7.43;71.17;96238.03;1775729;78;20952;-81
2021/12/26 09:06:42;;;;;;;3.60;3.40;;;;;;;-7.42;71.05;96238.41;1784822;78;20988;-81
2021/12/26 09:09:08;;;;;;;3.70;3.50;;;;;;;-7.42;71.36;96232.09;1754066;78;21014;-81
2021/12/26 09:11:34;;;;;;;3.62;3.42;;;;;;;-7.41;71.34;96235.44;1766672;79;21500;-82
2021/12/26 09:14:00;;;;;;;4.10;3.90;;;;;;;-7.38;71.38;96232.30;1774320;78;20979;-81
2021/12/26 09:16:33;;;;;;;3.90;3.60;;;;;;;-7.35;71.41;96229.63;1776683;79;20987;-82
2021/12/26 09:18:53;;;;;;;3.55;3.35;;;;;;;-7.31;71.43;96229.86;1766882;78;21108;-82
2021/12/26 09:21:19;;;;;;;4.25;3.95;;;;;;;-7.22;71.27;96222.70;1771521;79;20957;-82
2021/12/26 09:23:46;;;;;;;4.00;3.70;;;;;;;-7.14;71.16;96226.94;1778323;78;21384;-82
2021/12/26 09:26:12;;;;;;;3.80;3.50;;;;;;;-7.10;71.02;96220.83;1754431;80;21000;-82
2021/12/26 09:28:38;;;;;;;4.90;4.28;;;;;;;-7.03;70.93;96215.81;1767424;78;21311;-82
2021/12/26 09:31:04;;;;;;;4.42;4.10;;;;;;;-6.95;70.68;96212.47;1697543;81;21047;-82
2021/12/26 09:33:30;;;;;;;5.03;4.60;;;;;;;-6.91;70.73;96205.09;1723014;81;20991;-82
2021/12/26 09:35:56;;;;;;;3.75;3.55;;;;;;;-6.87;70.57;96207.00;1720181;81;21350;-82
2021/12/26 09:38:21;;;;;;;4.20;3.90;;;;;;;-6.80;70.61;96213.37;1770926;79;20975;-82
2021/12/26 09:40:47;;;;;;;4.20;3.90;;;;;;;-6.76;70.44;96208.53;1776197;79;21022;-82
2021/12/26 09:43:13;;;;;;;4.08;3.77;;;;;;;-6.72;70.33;96211.25;1783710;80;21015;-81
2021/12/26 09:45:39;;;;;;;12.68;8.43;;;;;;;-6.66;70.14;96214.73;1767129;78;21339;-81
2021/12/26 09:48:05;;;;;;;4.83;4.42;;;;;;;-6.57;69.92;96216.77;1761799;78;20996;-80
2021/12/26 09:50:31;;;;;;;17.32;11.40;;;;;;;-6.51;69.77;96217.72;1776254;78;21055;-81
2021/12/26 09:52:57;;;;;;;11.50;7.35;;;;;;;-6.50;69.92;96211.77;1768151;79;21031;-81
2021/12/26 09:55:28;;;;;;;6.25;5.65;;;;;;;-6.42;69.86;96207.55;1783203;78;21007;-80
2021/12/26 09:57:54;;;;;;;9.57;6.47;;;;;;;-6.34;70.04;96209.23;1787029;80;21429;-81
2021/12/26 10:00:28;;;;;;;9.30;6.78;;;;;;;-6.32;69.58;96204.90;1756035;79;21266;-84
2021/12/26 10:03:20;;;;;;;22.40;11.73;;;;;;;-6.29;69.40;96208.97;1770189;78;20967;-80
2021/12/26 10:06:12;;;;;;;;;;;;;;;-6.25;68.69;96205.37;1775536;79;20984;-82
2021/12/26 10:08:59;;;;;;;14.63;9.55;;;;;;;-6.22;69.44;96203.94;1771774;78;20132;-81
2021/12/26 10:11:29;;;;;;;30.17;15.30;;;;;;;-6.21;69.50;96201.31;1734501;80;20944;-83
2021/12/26 10:13:59;;;;;;;23.10;11.15;;;;;;;-6.15;69.86;96201.00;1772385;78;21436;-81
2021/12/26 10:16:29;;;;;;;27.95;14.55;;;;;;;-6.06;69.99;96205.98;1752200;79;21122;-81
2021/12/26 10:18:55;;;;;;;19.98;12.60;;;;;;;-5.97;70.04;96204.67;1780716;78;20987;-81
2021/12/26 10:21:28;;;;;;;17.12;10.00;;;;;;;-5.95;70.10;96202.88;1782454;78;20999;-80
2021/12/26 10:23:57;;;;;;;19.87;12.45;;;;;;;-5.90;70.05;96208.48;1764224;78;21022;-81
2021/12/26 10:26:27;;;;;;;23.45;11.75;;;;;;;-5.84;70.34;96208.94;1757002;79;20992;-81
2021/12/26 10:29:08;;;;;;;21.95;10.93;;;;;;;-5.77;70.48;96206.41;1761618;80;20999;-81
2021/12/26 10:31:36;;;;;;;30.90;14.35;;;;;;;-5.64;70.61;96204.01;1764351;78;21011;-81
2021/12/26 10:34:02;;;;;;;36.08;17.27;;;;;;;-5.47;70.77;96210.64;1767591;79;21000;-81
2021/12/26 10:36:28;;;;;;;35.35;19.00;;;;;;;-5.35;70.79;96206.59;1757828;80;21003;-82
2021/12/26 10:39:09;;;;;;;42.40;21.30;;;;;;;-5.32;70.11;96203.42;1779301;78;22310;-82
2021/12/26 10:41:48;;;;;;;48.48;25.23;;;;;;;-5.25;70.34;96203.42;1779035;79;21038;-84
2021/12/26 10:44:34;;;;;;;51.37;26.65;;;;;;;-5.15;70.45;96208.32;1754336;79;21035;-82
2021/12/26 10:47:12;;;;;;;60.90;30.82;;;;;;;-5.11;70.03;96202.61;1767993;78;21058;-84
2021/12/26 10:50:11;;;;;;;58.20;33.05;;;;;;;-5.18;69.96;96198.37;1778793;78;21025;-85
2021/12/26 10:52:41;;;;;;;65.35;35.45;;;;;;;-5.07;70.10;96210.39;1689199;81;21036;-85
2021/12/26 10:55:11;;;;;;;76.00;36.83;;;;;;;-5.03;70.17;96206.79;1703492;81;21066;-84
2021/12/26 10:57:40;;;;;;;61.53;32.88;;;;;;;-4.99;70.04;96208.23;1681565;83;21088;-87
2021/12/26 11:00:31;;;;;;;57.25;30.43;;;;;;;-4.98;69.91;96207.33;1714020;81;21041;-86
2021/12/26 11:03:15;;;;;;;67.40;35.33;;;;;;;-4.96;69.68;96205.97;1721443;81;21008;-83
2021/12/26 11:05:45;;;;;;;46.83;25.43;;;;;;;-4.95;69.37;96206.33;1729464;81;22420;-86
2021/12/26 11:08:20;;;;;;;62.85;31.00;;;;;;;-4.90;69.38;96206.85;1735056;80;20973;-85
2021/12/26 11:10:52;;;;;;;61.45;32.90;;;;;;;-4.88;69.39;96207.60;1754879;80;21375;-83
2021/12/26 11:13:23;;;;;;;63.87;33.53;;;;;;;-4.80;69.69;96204.59;1734564;81;21104;-83
2021/12/26 11:15:49;;;;;;;71.75;36.75;;;;;;;-4.70;69.71;96198.89;1711568;81;21497;-84
2021/12/26 11:18:18;;;;;;;53.25;27.75;;;;;;;-4.68;69.55;96202.14;1734521;80;21048;-87
2021/12/26 11:20:46;;;;;;;44.38;23.65;;;;;;;-4.73;69.60;96194.44;1748187;80;21494;-85
2021/12/26 11:23:18;;;;;;;51.83;26.80;;;;;;;-4.68;69.51;96203.86;1761490;79;21002;-85
2021/12/26 11:26:15;;;;;;;46.83;26.55;;;;;;;-4.72;69.50;96199.86;1769198;80;21009;-86
2021/12/26 11:28:43;;;;;;;76.02;38.17;;;;;;;-4.72;69.58;96190.56;1766314;79;21388;-87
2021/12/26 11:31:12;;;;;;;71.12;36.60;;;;;;;-4.77;69.24;96195.08;1766235;80;21074;-84
2021/12/26 11:33:39;;;;;;;73.05;33.98;;;;;;;-4.78;69.45;96192.19;1759340;78;21039;-88
2021/12/26 11:36:09;;;;;;;63.15;31.75;;;;;;;-4.78;69.35;96185.84;1748743;80;21006;-86